Jemila — 2IWQ6 — position and weather

sailwx.info

Track history (hours):
 
Tides and Currents Weather Stations Pressure Air Temp Water Temp Dewpoint Dewpoint Depression Visibility Wind Speed Wind Dir Waves Ship Positions

Jemila

Last reported at 2017-Sep-21 15:53 UTC. Time now 2017-Sep-24 19:23 UTC.
Position N 38°42' W 009°25'.

Length 12 m.

Type: Sailing vessel. MMSI: 235113398.

Date/timePositionNaut miles runAvg speedWind from/ knotsBaromVisibWave heightAir tempDewpointWater temp
2017-Sep-21 15:53N 38°42' W 009°25'0 0.6
2017-Sep-21 15:21N 38°42' W 009°25'1 1.9
2017-Sep-21 14:58N 38°41' W 009°25'7 4.8
2017-Sep-21 13:30N 38°46' W 009°32'3 5.4
2017-Sep-21 13:00N 38°49' W 009°32'3 5.1
2017-Sep-21 12:30N 38°51' W 009°33'3 5.3
2017-Sep-21 11:59N 38°54' W 009°32'3 5.3
2017-Sep-21 11:30N 38°56' W 009°32'3 5.3
2017-Sep-21 11:00N 38°59' W 009°32'3 5.4
2017-Sep-21 10:30N 39°02' W 009°31'3 5.5
2017-Sep-21 09:57N 39°05' W 009°30'  
Track history (hours):
 
Tides and Currents Weather Stations Pressure Air Temp Water Temp Dewpoint Dewpoint Depression Visibility Wind Speed Wind Dir Waves Ship Positions

Jemila

Last reported at 2017-Sep-21 15:53 UTC. Time now 2017-Sep-24 19:23 UTC.
Position N 38°42' W 009°25'.

Length 12 m.

Type: Sailing vessel. MMSI: 235113398.

Date/timePositionNaut miles runAvg speedWind from/ knotsBaromVisibWave heightAir tempDewpointWater temp
2017-Sep-21 15:53N 38°42' W 009°25'0 0.6
2017-Sep-21 15:21N 38°42' W 009°25'1 1.9
2017-Sep-21 14:58N 38°41' W 009°25'7 4.8
2017-Sep-21 13:30N 38°46' W 009°32'3 5.4
2017-Sep-21 13:00N 38°49' W 009°32'3 5.1
2017-Sep-21 12:30N 38°51' W 009°33'3 5.3
2017-Sep-21 11:59N 38°54' W 009°32'3 5.3
2017-Sep-21 11:30N 38°56' W 009°32'3 5.3
2017-Sep-21 11:00N 38°59' W 009°32'3 5.4
2017-Sep-21 10:30N 39°02' W 009°31'3 5.5
2017-Sep-21 09:57N 39°05' W 009°30'  

Dump ship's entire track history